sensor_id;sensor_type;location;lat;lon;timestamp;temperature;humidity
37844;DHT22;63793;57.632;18.292;2023-02-03T00:01:53;-0.80;99.90
37844;DHT22;63793;57.632;18.292;2023-02-03T00:04:20;-0.80;99.90
37844;DHT22;63793;57.632;18.292;2023-02-03T00:06:46;-0.70;99.90
37844;DHT22;63793;57.632;18.292;2023-02-03T00:09:14;-0.80;99.90
37844;DHT22;63793;57.632;18.292;2023-02-03T00:11:41;-0.70;99.90
37844;DHT22;63793;57.632;18.292;2023-02-03T00:14:08;-0.70;99.90
37844;DHT22;63793;57.632;18.292;2023-02-03T00:16:35;-0.70;99.90
37844;DHT22;63793;57.632;18.292;2023-02-03T00:19:02;-0.70;99.90
37844;DHT22;63793;57.632;18.292;2023-02-03T00:21:29;-0.70;99.90
37844;DHT22;63793;57.632;18.292;2023-02-03T00:23:56;-0.60;99.90
37844;DHT22;63793;57.632;18.292;2023-02-03T00:26:22;-0.70;99.90
37844;DHT22;63793;57.632;18.292;2023-02-03T00:28:51;-0.70;99.90
37844;DHT22;63793;57.632;18.292;2023-02-03T00:31:21;-0.70;99.90
37844;DHT22;63793;57.632;18.292;2023-02-03T00:33:54;-0.70;99.90
37844;DHT22;63793;57.632;18.292;2023-02-03T00:36:22;-0.80;99.90
37844;DHT22;63793;57.632;18.292;2023-02-03T00:38:49;-0.90;99.90
37844;DHT22;63793;57.632;18.292;2023-02-03T00:41:17;-1.10;99.90
37844;DHT22;63793;57.632;18.292;2023-02-03T00:43:44;-1.20;99.90
37844;DHT22;63793;57.632;18.292;2023-02-03T00:46:13;-1.30;99.90
37844;DHT22;63793;57.632;18.292;2023-02-03T00:48:40;-1.40;99.90
37844;DHT22;63793;57.632;18.292;2023-02-03T00:51:07;-1.50;99.90
37844;DHT22;63793;57.632;18.292;2023-02-03T00:53:33;-1.60;99.90
37844;DHT22;63793;57.632;18.292;2023-02-03T00:56:00;-1.60;99.90
37844;DHT22;63793;57.632;18.292;2023-02-03T00:58:27;-1.70;99.90
37844;DHT22;63793;57.632;18.292;2023-02-03T01:00:57;-1.80;99.90
37844;DHT22;63793;57.632;18.292;2023-02-03T01:03:24;-1.80;99.90
37844;DHT22;63793;57.632;18.292;2023-02-03T01:05:51;-1.80;99.90
37844;DHT22;63793;57.632;18.292;2023-02-03T01:08:18;-1.90;99.90
37844;DHT22;63793;57.632;18.292;2023-02-03T01:10:45;-1.90;99.90
37844;DHT22;63793;57.632;18.292;2023-02-03T01:13:12;-2.00;99.90
37844;DHT22;63793;57.632;18.292;2023-02-03T01:15:48;-2.10;99.90
37844;DHT22;63793;57.632;18.292;2023-02-03T01:18:15;-2.10;99.90
37844;DHT22;63793;57.632;18.292;2023-02-03T01:20:43;-2.10;99.90
37844;DHT22;63793;57.632;18.292;2023-02-03T01:23:09;-2.10;99.90
37844;DHT22;63793;57.632;18.292;2023-02-03T01:25:36;-2.20;99.90
37844;DHT22;63793;57.632;18.292;2023-02-03T01:28:03;-2.30;99.90
37844;DHT22;63793;57.632;18.292;2023-02-03T01:30:32;-2.30;99.90
37844;DHT22;63793;57.632;18.292;2023-02-03T01:32:59;-2.30;99.90
37844;DHT22;63793;57.632;18.292;2023-02-03T01:35:26;-2.30;99.90
37844;DHT22;63793;57.632;18.292;2023-02-03T01:37:52;-2.40;99.90
37844;DHT22;63793;57.632;18.292;2023-02-03T01:40:19;-2.40;99.90
37844;DHT22;63793;57.632;18.292;2023-02-03T01:42:46;-2.40;99.90
37844;DHT22;63793;57.632;18.292;2023-02-03T01:45:13;-2.50;99.90
37844;DHT22;63793;57.632;18.292;2023-02-03T01:50:17;-2.60;99.90
37844;DHT22;63793;57.632;18.292;2023-02-03T01:52:49;-2.60;99.90
37844;DHT22;63793;57.632;18.292;2023-02-03T01:55:20;-2.60;99.90
37844;DHT22;63793;57.632;18.292;2023-02-03T01:57:55;-2.60;99.90
37844;DHT22;63793;57.632;18.292;2023-02-03T02:00:24;-2.60;99.90
37844;DHT22;63793;57.632;18.292;2023-02-03T02:02:54;-2.70;99.90
37844;DHT22;63793;57.632;18.292;2023-02-03T02:05:34;-2.80;99.90
37844;DHT22;63793;57.632;18.292;2023-02-03T02:08:03;-2.80;99.90
37844;DHT22;63793;57.632;18.292;2023-02-03T02:10:31;-2.80;99.90
37844;DHT22;63793;57.632;18.292;2023-02-03T02:12:59;-2.80;99.90
37844;DHT22;63793;57.632;18.292;2023-02-03T02:18:23;-2.90;99.90
37844;DHT22;63793;57.632;18.292;2023-02-03T02:32:09;-3.10;99.90
37844;DHT22;63793;57.632;18.292;2023-02-03T02:43:12;-3.20;99.90
37844;DHT22;63793;57.632;18.292;2023-02-03T02:45:51;-3.20;99.90
37844;DHT22;63793;57.632;18.292;2023-02-03T02:48:47;-3.20;99.90
37844;DHT22;63793;57.632;18.292;2023-02-03T02:51:16;-3.30;99.90
37844;DHT22;63793;57.632;18.292;2023-02-03T02:53:53;-3.30;99.90
37844;DHT22;63793;57.632;18.292;2023-02-03T02:56:23;-3.40;99.90
37844;DHT22;63793;57.632;18.292;2023-02-03T02:58:52;-3.40;99.90
37844;DHT22;63793;57.632;18.292;2023-02-03T03:01:21;-3.50;99.90
37844;DHT22;63793;57.632;18.292;2023-02-03T03:03:48;-3.50;99.90
37844;DHT22;63793;57.632;18.292;2023-02-03T03:06:28;-3.60;99.90
37844;DHT22;63793;57.632;18.292;2023-02-03T03:09:09;-3.60;99.90
37844;DHT22;63793;57.632;18.292;2023-02-03T03:11:46;-3.60;99.90
37844;DHT22;63793;57.632;18.292;2023-02-03T03:14:17;-3.60;99.90
37844;DHT22;63793;57.632;18.292;2023-02-03T03:16:53;-3.60;99.90
37844;DHT22;63793;57.632;18.292;2023-02-03T03:19:25;-3.70;99.90
37844;DHT22;63793;57.632;18.292;2023-02-03T03:22:00;-3.70;99.90
37844;DHT22;63793;57.632;18.292;2023-02-03T03:24:32;-3.70;99.90
37844;DHT22;63793;57.632;18.292;2023-02-03T03:27:22;-3.70;99.90
37844;DHT22;63793;57.632;18.292;2023-02-03T03:29:51;-3.70;99.90
37844;DHT22;63793;57.632;18.292;2023-02-03T03:32:19;-3.70;99.90
37844;DHT22;63793;57.632;18.292;2023-02-03T03:34:46;-3.70;99.90
37844;DHT22;63793;57.632;18.292;2023-02-03T03:37:19;-3.70;99.90
37844;DHT22;63793;57.632;18.292;2023-02-03T03:40:00;-3.70;99.90
37844;DHT22;63793;57.632;18.292;2023-02-03T03:45:17;-3.70;99.90
37844;DHT22;63793;57.632;18.292;2023-02-03T03:48:06;-3.70;99.90
37844;DHT22;63793;57.632;18.292;2023-02-03T03:50:50;-3.70;99.90
37844;DHT22;63793;57.632;18.292;2023-02-03T03:53:19;-3.60;99.90
37844;DHT22;63793;57.632;18.292;2023-02-03T03:55:50;-3.60;99.90
37844;DHT22;63793;57.632;18.292;2023-02-03T03:58:29;-3.60;99.90
37844;DHT22;63793;57.632;18.292;2023-02-03T04:01:00;-3.60;99.90
37844;DHT22;63793;57.632;18.292;2023-02-03T04:03:32;-3.60;99.90
37844;DHT22;63793;57.632;18.292;2023-02-03T04:06:01;-3.60;99.90
37844;DHT22;63793;57.632;18.292;2023-02-03T04:08:28;-3.60;99.90
37844;DHT22;63793;57.632;18.292;2023-02-03T04:10:54;-3.60;99.90
37844;DHT22;63793;57.632;18.292;2023-02-03T04:13:21;-3.60;99.90
37844;DHT22;63793;57.632;18.292;2023-02-03T04:15:48;-3.60;99.90
37844;DHT22;63793;57.632;18.292;2023-02-03T04:18:15;-3.60;99.90
37844;DHT22;63793;57.632;18.292;2023-02-03T04:20:43;-3.70;99.90
37844;DHT22;63793;57.632;18.292;2023-02-03T04:23:09;-3.70;99.90
37844;DHT22;63793;57.632;18.292;2023-02-03T04:25:36;-3.70;99.90
37844;DHT22;63793;57.632;18.292;2023-02-03T04:28:03;-3.60;99.90
37844;DHT22;63793;57.632;18.292;2023-02-03T04:30:32;-3.60;99.90
37844;DHT22;63793;57.632;18.292;2023-02-03T04:32:59;-3.60;99.90
37844;DHT22;63793;57.632;18.292;2023-02-03T04:35:26;-3.60;99.90
37844;DHT22;63793;57.632;18.292;2023-02-03T04:37:53;-3.60;99.90
37844;DHT22;63793;57.632;18.292;2023-02-03T04:40:20;-3.60;99.90
37844;DHT22;63793;57.632;18.292;2023-02-03T04:42:46;-3.60;99.90
37844;DHT22;63793;57.632;18.292;2023-02-03T04:45:13;-3.60;99.90
37844;DHT22;63793;57.632;18.292;2023-02-03T04:47:40;-3.60;99.90
37844;DHT22;63793;57.632;18.292;2023-02-03T04:50:07;-3.60;99.90
37844;DHT22;63793;57.632;18.292;2023-02-03T04:52:34;-3.60;99.90
37844;DHT22;63793;57.632;18.292;2023-02-03T04:55:01;-3.60;99.90
37844;DHT22;63793;57.632;18.292;2023-02-03T04:57:29;-3.60;99.90
37844;DHT22;63793;57.632;18.292;2023-02-03T04:59:56;-3.60;99.90
37844;DHT22;63793;57.632;18.292;2023-02-03T05:02:23;-3.60;99.90
37844;DHT22;63793;57.632;18.292;2023-02-03T05:04:50;-3.60;99.90
37844;DHT22;63793;57.632;18.292;2023-02-03T05:07:17;-3.50;99.90
37844;DHT22;63793;57.632;18.292;2023-02-03T05:09:44;-3.50;99.90
37844;DHT22;63793;57.632;18.292;2023-02-03T05:12:11;-3.50;99.90
37844;DHT22;63793;57.632;18.292;2023-02-03T05:14:38;-3.50;99.90
37844;DHT22;63793;57.632;18.292;2023-02-03T05:17:04;-3.50;99.90
37844;DHT22;63793;57.632;18.292;2023-02-03T05:19:31;-3.50;99.90
37844;DHT22;63793;57.632;18.292;2023-02-03T05:21:58;-3.40;99.90
37844;DHT22;63793;57.632;18.292;2023-02-03T05:24:25;-3.40;99.90
37844;DHT22;63793;57.632;18.292;2023-02-03T05:26:52;-3.40;99.90
37844;DHT22;63793;57.632;18.292;2023-02-03T05:29:19;-3.40;99.90
37844;DHT22;63793;57.632;18.292;2023-02-03T05:31:45;-3.40;99.90
37844;DHT22;63793;57.632;18.292;2023-02-03T05:34:12;-3.40;99.90
37844;DHT22;63793;57.632;18.292;2023-02-03T05:36:39;-3.40;99.90
37844;DHT22;63793;57.632;18.292;2023-02-03T05:39:06;-3.40;99.90
37844;DHT22;63793;57.632;18.292;2023-02-03T05:41:33;-3.40;99.90
37844;DHT22;63793;57.632;18.292;2023-02-03T05:46:46;-3.40;99.90
37844;DHT22;63793;57.632;18.292;2023-02-03T05:49:13;-3.40;99.90
37844;DHT22;63793;57.632;18.292;2023-02-03T05:51:40;-3.40;99.90
37844;DHT22;63793;57.632;18.292;2023-02-03T05:54:07;-3.40;99.90
37844;DHT22;63793;57.632;18.292;2023-02-03T05:56:34;-3.40;99.90
37844;DHT22;63793;57.632;18.292;2023-02-03T05:59:01;-3.40;99.90
37844;DHT22;63793;57.632;18.292;2023-02-03T06:01:28;-3.40;99.90
37844;DHT22;63793;57.632;18.292;2023-02-03T06:03:55;-3.50;99.90
37844;DHT22;63793;57.632;18.292;2023-02-03T06:06:22;-3.40;99.90
37844;DHT22;63793;57.632;18.292;2023-02-03T06:08:49;-3.50;99.90
37844;DHT22;63793;57.632;18.292;2023-02-03T06:11:22;-3.50;99.90
37844;DHT22;63793;57.632;18.292;2023-02-03T06:13:50;-3.50;99.90
37844;DHT22;63793;57.632;18.292;2023-02-03T06:16:17;-3.50;99.90
37844;DHT22;63793;57.632;18.292;2023-02-03T06:18:44;-3.50;99.90
37844;DHT22;63793;57.632;18.292;2023-02-03T06:21:10;-3.50;99.90
37844;DHT22;63793;57.632;18.292;2023-02-03T06:23:37;-3.60;99.90
37844;DHT22;63793;57.632;18.292;2023-02-03T06:26:04;-3.50;99.90
37844;DHT22;63793;57.632;18.292;2023-02-03T06:28:31;-3.50;99.90
37844;DHT22;63793;57.632;18.292;2023-02-03T06:30:59;-3.50;99.90
37844;DHT22;63793;57.632;18.292;2023-02-03T06:33:26;-3.50;99.90
37844;DHT22;63793;57.632;18.292;2023-02-03T06:35:53;-3.50;99.90
37844;DHT22;63793;57.632;18.292;2023-02-03T06:38:20;-3.50;99.90
37844;DHT22;63793;57.632;18.292;2023-02-03T06:40:48;-3.40;99.90
37844;DHT22;63793;57.632;18.292;2023-02-03T06:43:15;-3.30;99.90
37844;DHT22;63793;57.632;18.292;2023-02-03T06:45:46;-3.30;99.90
37844;DHT22;63793;57.632;18.292;2023-02-03T06:48:13;-3.20;99.90
37844;DHT22;63793;57.632;18.292;2023-02-03T06:50:40;-3.20;99.90
37844;DHT22;63793;57.632;18.292;2023-02-03T06:53:07;-3.10;99.90
37844;DHT22;63793;57.632;18.292;2023-02-03T06:55:34;-3.10;99.90
37844;DHT22;63793;57.632;18.292;2023-02-03T06:58:01;-3.00;99.90
37844;DHT22;63793;57.632;18.292;2023-02-03T07:00:27;-3.00;99.90
37844;DHT22;63793;57.632;18.292;2023-02-03T07:02:56;-2.90;99.90
37844;DHT22;63793;57.632;18.292;2023-02-03T07:05:24;-2.90;99.90
37844;DHT22;63793;57.632;18.292;2023-02-03T07:07:53;-2.80;99.90
37844;DHT22;63793;57.632;18.292;2023-02-03T07:10:20;-2.80;99.90
37844;DHT22;63793;57.632;18.292;2023-02-03T07:12:47;-2.80;99.90
37844;DHT22;63793;57.632;18.292;2023-02-03T07:15:16;-2.80;99.90
37844;DHT22;63793;57.632;18.292;2023-02-03T07:17:44;-2.70;99.90
37844;DHT22;63793;57.632;18.292;2023-02-03T07:20:17;-2.70;99.90
37844;DHT22;63793;57.632;18.292;2023-02-03T07:22:43;-2.60;99.90
37844;DHT22;63793;57.632;18.292;2023-02-03T07:25:12;-2.60;99.90
37844;DHT22;63793;57.632;18.292;2023-02-03T07:27:38;-2.60;99.90
37844;DHT22;63793;57.632;18.292;2023-02-03T07:30:06;-2.50;99.90
37844;DHT22;63793;57.632;18.292;2023-02-03T07:32:33;-2.50;99.90
37844;DHT22;63793;57.632;18.292;2023-02-03T07:34:59;-2.40;99.90
37844;DHT22;63793;57.632;18.292;2023-02-03T07:37:26;-2.30;99.90
37844;DHT22;63793;57.632;18.292;2023-02-03T07:39:53;-2.30;99.90
37844;DHT22;63793;57.632;18.292;2023-02-03T07:42:20;-2.30;99.90
37844;DHT22;63793;57.632;18.292;2023-02-03T07:44:50;-2.20;99.90
37844;DHT22;63793;57.632;18.292;2023-02-03T07:47:16;-2.20;99.90
37844;DHT22;63793;57.632;18.292;2023-02-03T07:49:43;-2.10;99.90
37844;DHT22;63793;57.632;18.292;2023-02-03T07:52:10;-2.10;99.90
37844;DHT22;63793;57.632;18.292;2023-02-03T07:54:37;-2.00;99.90
37844;DHT22;63793;57.632;18.292;2023-02-03T07:57:04;-2.00;99.90
37844;DHT22;63793;57.632;18.292;2023-02-03T07:59:31;-1.90;99.90
37844;DHT22;63793;57.632;18.292;2023-02-03T08:01:58;-1.90;99.90
37844;DHT22;63793;57.632;18.292;2023-02-03T08:04:25;-1.90;99.90
37844;DHT22;63793;57.632;18.292;2023-02-03T08:06:52;-1.90;99.90
37844;DHT22;63793;57.632;18.292;2023-02-03T08:09:18;-1.80;99.90
37844;DHT22;63793;57.632;18.292;2023-02-03T08:11:45;-1.90;99.90
37844;DHT22;63793;57.632;18.292;2023-02-03T08:14:12;-1.80;99.90
37844;DHT22;63793;57.632;18.292;2023-02-03T08:16:39;-1.80;99.90
37844;DHT22;63793;57.632;18.292;2023-02-03T08:19:06;-1.80;99.90
37844;DHT22;63793;57.632;18.292;2023-02-03T08:21:33;-1.80;99.90
37844;DHT22;63793;57.632;18.292;2023-02-03T08:24:00;-1.80;99.90
37844;DHT22;63793;57.632;18.292;2023-02-03T08:26:27;-1.70;99.90
37844;DHT22;63793;57.632;18.292;2023-02-03T08:28:54;-1.70;99.90
37844;DHT22;63793;57.632;18.292;2023-02-03T08:31:21;-1.70;99.90
37844;DHT22;63793;57.632;18.292;2023-02-03T08:33:48;-1.70;99.90
37844;DHT22;63793;57.632;18.292;2023-02-03T08:36:14;-1.70;99.90
37844;DHT22;63793;57.632;18.292;2023-02-03T08:38:42;-1.60;99.90
37844;DHT22;63793;57.632;18.292;2023-02-03T08:41:15;-1.60;99.90
37844;DHT22;63793;57.632;18.292;2023-02-03T08:43:44;-1.60;99.90
37844;DHT22;63793;57.632;18.292;2023-02-03T08:46:12;-1.60;99.90
37844;DHT22;63793;57.632;18.292;2023-02-03T08:48:39;-1.50;99.90
37844;DHT22;63793;57.632;18.292;2023-02-03T08:51:11;-1.50;99.90
37844;DHT22;63793;57.632;18.292;2023-02-03T08:53:39;-1.50;99.90
37844;DHT22;63793;57.632;18.292;2023-02-03T08:56:07;-1.50;99.90
37844;DHT22;63793;57.632;18.292;2023-02-03T08:58:35;-1.40;99.90
37844;DHT22;63793;57.632;18.292;2023-02-03T09:01:10;-1.40;99.90
37844;DHT22;63793;57.632;18.292;2023-02-03T09:03:38;-1.40;99.90
37844;DHT22;63793;57.632;18.292;2023-02-03T09:06:07;-1.40;99.90
37844;DHT22;63793;57.632;18.292;2023-02-03T09:08:37;-1.40;99.90
37844;DHT22;63793;57.632;18.292;2023-02-03T09:11:15;-1.40;99.90
37844;DHT22;63793;57.632;18.292;2023-02-03T09:13:43;-1.30;99.90
37844;DHT22;63793;57.632;18.292;2023-02-03T09:16:12;-1.30;99.90
37844;DHT22;63793;57.632;18.292;2023-02-03T09:18:40;-1.30;99.90
37844;DHT22;63793;57.632;18.292;2023-02-03T09:21:09;-1.20;99.90
37844;DHT22;63793;57.632;18.292;2023-02-03T09:23:59;-1.20;99.90
37844;DHT22;63793;57.632;18.292;2023-02-03T09:26:26;-1.10;99.90
37844;DHT22;63793;57.632;18.292;2023-02-03T09:28:53;-1.00;99.90
37844;DHT22;63793;57.632;18.292;2023-02-03T09:31:20;-1.00;99.90
37844;DHT22;63793;57.632;18.292;2023-02-03T09:33:47;-0.90;99.90
37844;DHT22;63793;57.632;18.292;2023-02-03T09:36:13;-0.80;99.90
37844;DHT22;63793;57.632;18.292;2023-02-03T09:38:40;-0.80;99.90
37844;DHT22;63793;57.632;18.292;2023-02-03T09:41:33;-0.70;99.90
37844;DHT22;63793;57.632;18.292;2023-02-03T09:46:47;-0.60;99.90
37844;DHT22;63793;57.632;18.292;2023-02-03T09:49:44;-0.60;99.90
37844;DHT22;63793;57.632;18.292;2023-02-03T09:52:14;-0.50;99.90
37844;DHT22;63793;57.632;18.292;2023-02-03T09:58:09;-0.40;99.90
37844;DHT22;63793;57.632;18.292;2023-02-03T10:00:42;-0.30;99.90
37844;DHT22;63793;57.632;18.292;2023-02-03T10:06:16;-0.30;99.90
37844;DHT22;63793;57.632;18.292;2023-02-03T10:14:09;-0.20;99.90
37844;DHT22;63793;57.632;18.292;2023-02-03T10:19:48;-0.10;99.90
37844;DHT22;63793;57.632;18.292;2023-02-03T10:22:23;-0.10;99.90
37844;DHT22;63793;57.632;18.292;2023-02-03T10:25:06;-0.10;99.90
37844;DHT22;63793;57.632;18.292;2023-02-03T10:27:37;-0.10;99.90
37844;DHT22;63793;57.632;18.292;2023-02-03T10:30:23;0.00;99.90
37844;DHT22;63793;57.632;18.292;2023-02-03T10:32:56;0.00;99.90
37844;DHT22;63793;57.632;18.292;2023-02-03T10:35:34;0.10;99.90
37844;DHT22;63793;57.632;18.292;2023-02-03T10:38:03;0.10;99.90
37844;DHT22;63793;57.632;18.292;2023-02-03T10:40:31;0.20;99.90
37844;DHT22;63793;57.632;18.292;2023-02-03T10:42:58;0.30;99.90
37844;DHT22;63793;57.632;18.292;2023-02-03T10:45:43;0.30;99.90
37844;DHT22;63793;57.632;18.292;2023-02-03T10:48:15;0.30;99.90
37844;DHT22;63793;57.632;18.292;2023-02-03T10:50:47;0.40;99.90
37844;DHT22;63793;57.632;18.292;2023-02-03T10:53:22;0.40;99.90
37844;DHT22;63793;57.632;18.292;2023-02-03T10:56:09;0.50;99.90
37844;DHT22;63793;57.632;18.292;2023-02-03T10:58:39;0.50;99.90
37844;DHT22;63793;57.632;18.292;2023-02-03T11:01:14;0.50;99.90
37844;DHT22;63793;57.632;18.292;2023-02-03T11:03:57;0.50;99.90
37844;DHT22;63793;57.632;18.292;2023-02-03T11:06:25;0.50;99.90
37844;DHT22;63793;57.632;18.292;2023-02-03T11:08:52;0.50;99.90
37844;DHT22;63793;57.632;18.292;2023-02-03T11:11:30;0.60;99.90
37844;DHT22;63793;57.632;18.292;2023-02-03T11:16:33;0.60;99.90
37844;DHT22;63793;57.632;18.292;2023-02-03T11:19:17;0.60;99.90
37844;DHT22;63793;57.632;18.292;2023-02-03T11:21:48;0.60;99.90
37844;DHT22;63793;57.632;18.292;2023-02-03T11:27:16;0.60;99.90
37844;DHT22;63793;57.632;18.292;2023-02-03T11:29:46;0.60;99.90
37844;DHT22;63793;57.632;18.292;2023-02-03T11:32:31;0.70;99.90
37844;DHT22;63793;57.632;18.292;2023-02-03T11:35:17;0.70;99.90
37844;DHT22;63793;57.632;18.292;2023-02-03T11:37:47;0.70;99.90
37844;DHT22;63793;57.632;18.292;2023-02-03T11:42:43;0.80;99.90
37844;DHT22;63793;57.632;18.292;2023-02-03T11:47:53;0.80;99.90
37844;DHT22;63793;57.632;18.292;2023-02-03T11:53:25;0.90;99.90
37844;DHT22;63793;57.632;18.292;2023-02-03T12:15:45;1.10;99.90
37844;DHT22;63793;57.632;18.292;2023-02-03T12:18:31;1.10;99.90
37844;DHT22;63793;57.632;18.292;2023-02-03T12:21:12;1.10;99.90
37844;DHT22;63793;57.632;18.292;2023-02-03T12:24:08;1.20;99.90
37844;DHT22;63793;57.632;18.292;2023-02-03T12:29:33;1.20;99.90
37844;DHT22;63793;57.632;18.292;2023-02-03T12:34:51;1.20;99.90
37844;DHT22;63793;57.632;18.292;2023-02-03T12:37:41;1.20;99.90
37844;DHT22;63793;57.632;18.292;2023-02-03T12:40:40;1.20;99.90
37844;DHT22;63793;57.632;18.292;2023-02-03T12:46:05;1.20;99.90
37844;DHT22;63793;57.632;18.292;2023-02-03T12:51:27;1.20;99.90
37844;DHT22;63793;57.632;18.292;2023-02-03T12:56:43;1.30;99.90
37844;DHT22;63793;57.632;18.292;2023-02-03T12:59:18;1.40;99.90
37844;DHT22;63793;57.632;18.292;2023-02-03T13:01:55;1.50;99.90
37844;DHT22;63793;57.632;18.292;2023-02-03T13:04:38;1.50;99.90
37844;DHT22;63793;57.632;18.292;2023-02-03T13:07:15;1.50;99.90
37844;DHT22;63793;57.632;18.292;2023-02-03T13:12:51;1.50;99.90
37844;DHT22;63793;57.632;18.292;2023-02-03T13:15:30;1.50;99.90
37844;DHT22;63793;57.632;18.292;2023-02-03T13:18:14;1.40;99.90
37844;DHT22;63793;57.632;18.292;2023-02-03T13:20:44;1.40;99.90
37844;DHT22;63793;57.632;18.292;2023-02-03T13:23:13;1.40;99.90
37844;DHT22;63793;57.632;18.292;2023-02-03T13:42:27;1.10;99.90
37844;DHT22;63793;57.632;18.292;2023-02-03T13:44:58;1.00;99.90
37844;DHT22;63793;57.632;18.292;2023-02-03T13:47:29;1.00;99.90
37844;DHT22;63793;57.632;18.292;2023-02-03T13:50:03;0.90;99.90
37844;DHT22;63793;57.632;18.292;2023-02-03T13:52:44;0.90;99.90
37844;DHT22;63793;57.632;18.292;2023-02-03T13:55:37;0.90;99.90
37844;DHT22;63793;57.632;18.292;2023-02-03T13:58:07;0.80;99.90
37844;DHT22;63793;57.632;18.292;2023-02-03T14:03:20;0.80;99.90
37844;DHT22;63793;57.632;18.292;2023-02-03T14:06:53;0.80;99.90
37844;DHT22;63793;57.632;18.292;2023-02-03T14:08:59;0.70;99.90
37844;DHT22;63793;57.632;18.292;2023-02-03T14:16:44;0.80;99.90
37844;DHT22;63793;57.632;18.292;2023-02-03T14:21:54;0.70;99.90
37844;DHT22;63793;57.632;18.292;2023-02-03T14:24:23;0.70;99.90
37844;DHT22;63793;57.632;18.292;2023-02-03T14:26:56;0.60;99.90
37844;DHT22;63793;57.632;18.292;2023-02-03T14:29:28;0.70;99.90
37844;DHT22;63793;57.632;18.292;2023-02-03T14:32:03;0.60;99.90
37844;DHT22;63793;57.632;18.292;2023-02-03T14:37:16;0.60;99.90
37844;DHT22;63793;57.632;18.292;2023-02-03T14:59:40;0.50;99.90
37844;DHT22;63793;57.632;18.292;2023-02-03T15:02:17;0.40;99.90
37844;DHT22;63793;57.632;18.292;2023-02-03T15:04:48;0.40;99.90
37844;DHT22;63793;57.632;18.292;2023-02-03T15:07:43;0.40;99.90
37844;DHT22;63793;57.632;18.292;2023-02-03T15:10:18;0.40;99.90
37844;DHT22;63793;57.632;18.292;2023-02-03T15:12:50;0.40;99.90
37844;DHT22;63793;57.632;18.292;2023-02-03T15:15:28;0.30;99.90
37844;DHT22;63793;57.632;18.292;2023-02-03T15:17:57;0.40;99.90
37844;DHT22;63793;57.632;18.292;2023-02-03T15:20:32;0.30;99.90
37844;DHT22;63793;57.632;18.292;2023-02-03T15:23:00;0.30;99.90
37844;DHT22;63793;57.632;18.292;2023-02-03T15:25:29;0.30;99.90
37844;DHT22;63793;57.632;18.292;2023-02-03T15:28:16;0.30;99.90
37844;DHT22;63793;57.632;18.292;2023-02-03T15:30:46;0.30;99.90
37844;DHT22;63793;57.632;18.292;2023-02-03T15:33:16;0.30;99.90
37844;DHT22;63793;57.632;18.292;2023-02-03T15:35:49;0.30;99.90
37844;DHT22;63793;57.632;18.292;2023-02-03T15:38:32;0.20;99.90
37844;DHT22;63793;57.632;18.292;2023-02-03T15:41:00;0.30;99.90
37844;DHT22;63793;57.632;18.292;2023-02-03T15:43:40;0.20;99.90
37844;DHT22;63793;57.632;18.292;2023-02-03T15:46:34;0.20;99.90
37844;DHT22;63793;57.632;18.292;2023-02-03T15:49:13;0.20;99.90
37844;DHT22;63793;57.632;18.292;2023-02-03T15:51:50;0.20;99.90
37844;DHT22;63793;57.632;18.292;2023-02-03T15:56:59;0.20;99.90
37844;DHT22;63793;57.632;18.292;2023-02-03T15:59:33;0.20;99.90
37844;DHT22;63793;57.632;18.292;2023-02-03T16:02:18;0.20;99.90
37844;DHT22;63793;57.632;18.292;2023-02-03T16:04:47;0.20;99.90
37844;DHT22;63793;57.632;18.292;2023-02-03T16:07:25;0.20;99.90
37844;DHT22;63793;57.632;18.292;2023-02-03T16:09:54;0.20;99.90
37844;DHT22;63793;57.632;18.292;2023-02-03T16:12:27;0.10;99.90
37844;DHT22;63793;57.632;18.292;2023-02-03T16:14:57;0.10;99.90
37844;DHT22;63793;57.632;18.292;2023-02-03T16:17:30;0.10;99.90
37844;DHT22;63793;57.632;18.292;2023-02-03T16:20:25;0.10;99.90
37844;DHT22;63793;57.632;18.292;2023-02-03T16:23:20;0.10;99.90
37844;DHT22;63793;57.632;18.292;2023-02-03T16:26:16;0.10;99.90
37844;DHT22;63793;57.632;18.292;2023-02-03T16:29:09;0.10;99.90
37844;DHT22;63793;57.632;18.292;2023-02-03T16:31:56;0.10;99.90
37844;DHT22;63793;57.632;18.292;2023-02-03T16:34:41;0.10;99.90
37844;DHT22;63793;57.632;18.292;2023-02-03T16:37:34;0.20;99.90
37844;DHT22;63793;57.632;18.292;2023-02-03T16:40:27;0.20;99.90
37844;DHT22;63793;57.632;18.292;2023-02-03T16:43:14;0.20;99.90
37844;DHT22;63793;57.632;18.292;2023-02-03T16:46:00;0.20;99.90
37844;DHT22;63793;57.632;18.292;2023-02-03T16:48:46;0.20;99.90
37844;DHT22;63793;57.632;18.292;2023-02-03T16:51:39;0.30;99.90
37844;DHT22;63793;57.632;18.292;2023-02-03T16:54:11;0.30;99.90
37844;DHT22;63793;57.632;18.292;2023-02-03T16:56:39;0.30;99.90
37844;DHT22;63793;57.632;18.292;2023-02-03T16:59:06;0.30;99.90
37844;DHT22;63793;57.632;18.292;2023-02-03T17:01:33;0.30;99.90
37844;DHT22;63793;57.632;18.292;2023-02-03T17:03:59;0.30;99.90
37844;DHT22;63793;57.632;18.292;2023-02-03T17:06:27;0.30;99.90
37844;DHT22;63793;57.632;18.292;2023-02-03T17:08:54;0.30;99.90
37844;DHT22;63793;57.632;18.292;2023-02-03T17:11:24;0.30;99.90
37844;DHT22;63793;57.632;18.292;2023-02-03T17:13:52;0.30;99.90
37844;DHT22;63793;57.632;18.292;2023-02-03T17:16:22;0.30;99.90
37844;DHT22;63793;57.632;18.292;2023-02-03T17:18:49;0.30;99.90
37844;DHT22;63793;57.632;18.292;2023-02-03T17:21:20;0.30;99.90
37844;DHT22;63793;57.632;18.292;2023-02-03T17:23:47;0.40;99.90
37844;DHT22;63793;57.632;18.292;2023-02-03T17:26:14;0.40;99.90
37844;DHT22;63793;57.632;18.292;2023-02-03T17:28:41;0.40;99.90
37844;DHT22;63793;57.632;18.292;2023-02-03T17:31:17;0.30;99.90
37844;DHT22;63793;57.632;18.292;2023-02-03T17:33:48;0.30;99.90
37844;DHT22;63793;57.632;18.292;2023-02-03T17:36:17;0.30;99.90
37844;DHT22;63793;57.632;18.292;2023-02-03T17:38:47;0.30;99.90
37844;DHT22;63793;57.632;18.292;2023-02-03T17:41:31;0.30;99.90
37844;DHT22;63793;57.632;18.292;2023-02-03T17:44:16;0.30;99.90
37844;DHT22;63793;57.632;18.292;2023-02-03T17:47:01;0.30;99.90
37844;DHT22;63793;57.632;18.292;2023-02-03T17:49:46;0.30;99.90
37844;DHT22;63793;57.632;18.292;2023-02-03T17:52:32;0.30;99.90
37844;DHT22;63793;57.632;18.292;2023-02-03T17:55:17;0.30;99.90
37844;DHT22;63793;57.632;18.292;2023-02-03T17:57:43;0.30;99.90
37844;DHT22;63793;57.632;18.292;2023-02-03T18:00:11;0.20;99.90
37844;DHT22;63793;57.632;18.292;2023-02-03T18:02:38;0.20;99.90
37844;DHT22;63793;57.632;18.292;2023-02-03T18:05:05;0.20;99.90
37844;DHT22;63793;57.632;18.292;2023-02-03T18:07:32;0.10;99.90
37844;DHT22;63793;57.632;18.292;2023-02-03T18:09:59;0.10;99.90
37844;DHT22;63793;57.632;18.292;2023-02-03T18:12:26;0.10;99.90
37844;DHT22;63793;57.632;18.292;2023-02-03T18:14:53;0.10;99.90
37844;DHT22;63793;57.632;18.292;2023-02-03T18:17:19;0.10;99.90
37844;DHT22;63793;57.632;18.292;2023-02-03T18:19:46;0.10;99.90
37844;DHT22;63793;57.632;18.292;2023-02-03T18:22:21;0.10;99.90